Time;durP1;ratioP1;P1;durP2;ratioP2;P2;SDS_P1;SDS_P2;PMS_P1;PMS_P2;Temp;Humidity;BMP_temperature;BMP_pressure;BME280_temperature;BME280_humidity;BME280_pressure;Samples;Min_cycle;Max_cycle;Signal;HPM_P1;HPM_P2
2022/02/06 00:01:33;;;;;;;5.83;5.23;;;5.90;99.90;;;;;;5083496;28;20213;-47
2022/02/06 00:04:01;;;;;;;4.30;3.93;;;5.90;99.90;;;;;;5080001;28;20220;-44
2022/02/06 00:06:30;;;;;;;6.87;4.73;;;5.90;99.90;;;;;;5061429;28;20206;-48
2022/02/06 00:08:58;;;;;;;2.47;1.87;;;5.90;99.90;;;;;;5080658;28;20221;-49
2022/02/06 00:11:25;;;;;;;4.33;3.43;;;6.00;99.90;;;;;;5082465;28;20193;-44
2022/02/06 00:13:52;;;;;;;4.57;4.03;;;6.00;99.90;;;;;;5080169;28;20190;-43
2022/02/06 00:16:19;;;;;;;4.87;4.07;;;6.00;99.90;;;;;;5076612;28;20201;-43
2022/02/06 00:18:46;;;;;;;3.93;3.63;;;6.00;99.90;;;;;;5076628;28;20194;-45
2022/02/06 00:21:15;;;;;;;4.07;3.73;;;6.00;99.90;;;;;;5058443;28;20205;-48
2022/02/06 00:23:44;;;;;;;4.60;3.80;;;6.10;99.90;;;;;;5079258;28;20221;-43
2022/02/06 00:26:21;;;;;;;3.40;3.20;;;6.10;99.90;;;;;;5073125;28;20228;-43
2022/02/06 00:28:58;;;;;;;3.87;3.57;;;6.10;99.90;;;;;;5082661;28;20784;-48
2022/02/06 00:31:34;;;;;;;3.40;3.20;;;6.10;99.90;;;;;;5074764;28;20224;-44
2022/02/06 00:34:31;;;;;;;4.03;3.73;;;6.10;99.90;;;;;;5079585;28;20201;-46
2022/02/06 00:39:43;;;;;;;3.30;2.60;;;6.10;99.90;;;;;;5080461;28;20197;-43
2022/02/06 00:42:11;;;;;;;3.97;3.67;;;6.10;99.90;;;;;;5076532;28;20277;-47
2022/02/06 00:44:38;;;;;;;3.70;2.97;;;6.10;99.90;;;;;;5084242;28;20714;-42
2022/02/06 00:47:05;;;;;;;3.73;3.43;;;6.10;99.90;;;;;;5071344;28;20297;-40
2022/02/06 00:49:32;;;;;;;4.60;3.57;;;6.10;99.90;;;;;;5086773;28;20563;-42
2022/02/06 00:52:07;;;;;;;3.73;3.43;;;6.10;99.90;;;;;;5083397;28;20198;-42
2022/02/06 00:54:34;;;;;;;4.63;3.70;;;6.20;99.90;;;;;;5071958;28;20263;-41
2022/02/06 00:57:00;;;;;;;3.73;3.43;;;6.20;99.90;;;;;;5082802;28;20222;-44
2022/02/06 00:59:29;;;;;;;4.17;3.20;;;6.20;99.90;;;;;;5086222;28;20209;-41
2022/02/06 01:01:56;;;;;;;3.23;2.70;;;6.20;99.90;;;;;;5077953;28;20198;-43
2022/02/06 01:04:22;;;;;;;5.43;3.53;;;6.20;99.90;;;;;;5085003;28;20271;-43
2022/02/06 01:06:50;;;;;;;3.23;3.03;;;6.20;99.90;;;;;;5085175;28;20244;-41
2022/02/06 01:09:17;;;;;;;2.10;1.83;;;6.20;99.90;;;;;;5069652;28;20225;-41
2022/02/06 01:11:44;;;;;;;4.43;2.93;;;6.20;99.90;;;;;;5086092;28;20650;-41
2022/02/06 01:14:19;;;;;;;3.93;3.30;;;6.20;99.90;;;;;;5083018;28;20563;-42
2022/02/06 01:16:56;;;;;;;3.60;3.13;;;6.20;99.90;;;;;;5073807;28;20225;-43
2022/02/06 01:19:27;;;;;;;4.90;3.40;;;6.20;99.90;;;;;;5078869;28;20193;-45
2022/02/06 01:22:00;;;;;;;4.13;2.83;;;6.20;99.90;;;;;;5084074;28;20194;-51
2022/02/06 01:24:38;;;;;;;2.67;2.47;;;6.20;99.90;;;;;;5085085;28;20233;-51
2022/02/06 01:27:11;;;;;;;3.90;2.73;;;6.20;99.90;;;;;;5066872;28;21506;-43
2022/02/06 01:29:45;;;;;;;3.67;2.70;;;6.20;99.90;;;;;;5086190;28;20204;-44
2022/02/06 01:32:16;;;;;;;3.67;3.03;;;6.30;99.90;;;;;;5075850;28;20872;-45
2022/02/06 01:34:47;;;;;;;2.90;2.67;;;6.30;99.90;;;;;;5085734;28;20281;-44
2022/02/06 01:37:23;;;;;;;3.43;3.13;;;6.30;99.90;;;;;;5082630;28;20944;-47
2022/02/06 01:40:06;;;;;;;3.10;2.27;;;6.30;99.90;;;;;;5073293;28;20197;-51
2022/02/06 01:42:38;;;;;;;3.67;2.90;;;6.30;99.90;;;;;;5081624;28;20277;-51
2022/02/06 01:45:26;;;;;;;3.03;2.70;;;6.30;99.90;;;;;;5081749;28;20253;-47
2022/02/06 02:01:53;;;;;;;3.53;2.73;;;6.40;99.90;;;;;;5085646;28;20677;-45
2022/02/06 02:04:33;;;;;;;3.10;2.90;;;6.40;99.90;;;;;;5079610;28;20215;-47
2022/02/06 02:07:24;;;;;;;1.93;1.83;;;6.40;99.90;;;;;;5076906;28;20789;-47
2022/02/06 02:13:10;;;;;;;2.57;2.47;;;6.40;99.90;;;;;;4994700;28;20614;-47
2022/02/06 02:21:31;;;;;;;3.53;2.87;;;6.40;99.90;;;;;;5079961;28;20198;-46
2022/02/06 02:24:21;;;;;;;1.93;1.63;;;6.50;99.90;;;;;;5081500;28;20705;-46
2022/02/06 02:27:05;;;;;;;2.60;2.07;;;6.40;99.90;;;;;;5065464;28;20209;-47
2022/02/06 02:30:18;;;;;;;3.13;2.90;;;6.40;99.90;;;;;;5084643;28;20551;-46
2022/02/06 02:44:31;;;;;;;2.63;2.20;;;6.50;99.90;;;;;;5070408;28;20225;-47
2022/02/06 02:46:55;;;;;;;2.30;2.10;;;6.50;99.90;;;;;;5082494;28;20213;-45
2022/02/06 02:49:25;;;;;;;2.50;1.97;;;6.50;99.90;;;;;;5072161;28;20204;-47
2022/02/06 02:51:59;;;;;;;2.43;2.13;;;6.50;99.90;;;;;;5082685;28;20205;-43
2022/02/06 02:54:29;;;;;;;2.10;2.00;;;6.50;99.90;;;;;;5075777;28;20728;-47
2022/02/06 02:57:05;;;;;;;1.97;1.87;;;6.50;99.90;;;;;;5072540;28;20282;-44
2022/02/06 02:59:44;;;;;;;1.97;1.83;;;6.50;99.90;;;;;;5080075;28;20208;-49
2022/02/06 03:02:10;;;;;;;2.13;2.00;;;6.50;99.90;;;;;;5080303;28;20246;-44
2022/02/06 03:04:38;;;;;;;1.77;1.67;;;6.50;99.90;;;;;;5077278;28;20218;-44
2022/02/06 03:07:05;;;;;;;3.57;1.63;;;6.60;99.90;;;;;;5079925;28;20941;-45
2022/02/06 03:09:38;;;;;;;2.20;2.00;;;6.60;99.90;;;;;;5083475;28;20221;-45
2022/02/06 03:12:07;;;;;;;2.37;2.17;;;6.60;99.90;;;;;;5080268;28;20194;-44
2022/02/06 03:14:40;;;;;;;2.47;2.27;;;6.60;99.90;;;;;;5069697;28;20206;-47
2022/02/06 03:17:07;;;;;;;1.73;1.63;;;6.60;99.90;;;;;;5078174;28;20848;-46
2022/02/06 03:19:40;;;;;;;1.97;1.87;;;6.60;99.90;;;;;;5084250;28;20651;-43
2022/02/06 03:22:07;;;;;;;2.53;2.33;;;6.60;99.90;;;;;;5069609;28;20208;-42
2022/02/06 03:24:41;;;;;;;2.20;2.10;;;6.70;99.90;;;;;;5083487;28;20217;-42
2022/02/06 03:27:09;;;;;;;1.87;1.70;;;6.60;99.90;;;;;;5079716;28;20932;-43
2022/02/06 03:29:36;;;;;;;3.23;2.27;;;6.60;99.90;;;;;;5069432;28;20210;-42
2022/02/06 03:32:03;;;;;;;2.10;1.93;;;6.60;99.90;;;;;;5079894;28;20280;-43
2022/02/06 03:34:30;;;;;;;2.40;2.20;;;6.70;99.90;;;;;;5083938;28;20203;-45
2022/02/06 03:36:56;;;;;;;1.90;1.80;;;6.60;99.90;;;;;;5074066;28;20282;-42
2022/02/06 03:39:25;;;;;;;2.57;2.00;;;6.70;99.90;;;;;;5082528;28;20197;-45
2022/02/06 03:42:07;;;;;;;2.63;2.43;;;6.70;99.90;;;;;;5081802;28;20638;-42
2022/02/06 03:44:40;;;;;;;2.47;2.03;;;6.70;99.90;;;;;;5068868;28;20240;-43
2022/02/06 03:47:12;;;;;;;2.50;2.30;;;6.70;99.90;;;;;;5078837;28;20222;-43
2022/02/06 03:49:48;;;;;;;2.70;2.10;;;6.70;99.90;;;;;;5083730;28;20210;-45
2022/02/06 03:52:17;;;;;;;2.53;2.43;;;6.70;99.90;;;;;;5068286;28;20217;-44
2022/02/06 03:54:44;;;;;;;2.80;1.83;;;6.80;99.90;;;;;;5083132;28;20198;-47
2022/02/06 03:57:12;;;;;;;2.87;2.57;;;6.70;99.90;;;;;;5079519;28;20291;-44
2022/02/06 03:59:39;;;;;;;3.73;2.40;;;6.80;99.90;;;;;;5063983;28;20202;-44
2022/02/06 04:02:06;;;;;;;2.23;2.10;;;6.80;99.90;;;;;;5078310;28;20190;-43
2022/02/06 04:04:33;;;;;;;2.30;2.00;;;6.80;99.90;;;;;;5083489;28;20229;-43
2022/02/06 04:07:06;;;;;;;3.10;2.43;;;6.80;99.90;;;;;;5079821;28;20229;-41
2022/02/06 04:09:38;;;;;;;2.60;2.40;;;6.80;99.90;;;;;;5076548;28;20201;-41
2022/02/06 04:12:06;;;;;;;2.43;2.27;;;6.80;99.90;;;;;;5079206;28;20202;-44
2022/02/06 04:14:43;;;;;;;2.40;1.87;;;6.80;99.90;;;;;;5068922;28;20228;-41
2022/02/06 04:17:20;;;;;;;2.57;1.80;;;6.90;99.90;;;;;;5078482;28;20377;-43
2022/02/06 04:19:47;;;;;;;2.23;2.10;;;6.90;99.90;;;;;;5084463;28;20201;-44
2022/02/06 04:22:14;;;;;;;2.70;2.00;;;6.90;99.90;;;;;;5082665;28;20224;-44
2022/02/06 04:24:41;;;;;;;1.80;1.70;;;6.90;99.90;;;;;;5078045;28;20562;-44
2022/02/06 04:27:08;;;;;;;2.00;1.90;;;6.90;99.90;;;;;;5083209;28;21029;-47
2022/02/06 04:29:36;;;;;;;2.43;2.23;;;6.90;99.90;;;;;;5087382;28;20650;-44
2022/02/06 04:32:03;;;;;;;2.07;1.97;;;6.90;99.90;;;;;;5068533;28;20213;-51
2022/02/06 04:34:31;;;;;;;2.07;1.87;;;6.90;99.90;;;;;;5087267;28;20194;-43
2022/02/06 04:37:05;;;;;;;1.63;1.50;;;6.90;99.90;;;;;;5084343;28;20233;-47
2022/02/06 04:39:55;;;;;;;1.93;1.83;;;6.90;99.90;;;;;;5087342;28;20199;-48
2022/02/06 04:42:34;;;;;;;3.40;1.30;;;7.00;99.90;;;;;;5082727;28;20283;-48
2022/02/06 04:45:36;;;;;;;1.67;1.30;;;6.90;99.90;;;;;;5066310;28;20711;-49
2022/02/06 04:48:30;;;;;;;1.70;1.60;;;7.00;99.90;;;;;;5082056;28;20225;-46
2022/02/06 04:51:37;;;;;;;1.80;1.70;;;7.00;99.90;;;;;;5080967;28;20205;-45
2022/02/06 05:13:49;;;;;;;2.50;2.10;;;7.10;99.90;;;;;;5075173;28;20305;-45
2022/02/06 05:16:32;;;;;;;2.47;2.27;;;7.10;99.90;;;;;;5067091;28;20317;-47
2022/02/06 05:19:28;;;;;;;2.00;1.90;;;7.10;99.90;;;;;;5065629;28;20214;-50
2022/02/06 05:22:27;;;;;;;1.73;1.63;;;7.10;99.90;;;;;;5074601;28;20280;-46
2022/02/06 05:25:21;;;;;;;2.70;2.07;;;7.10;99.90;;;;;;5085931;28;20233;-47
2022/02/06 05:28:05;;;;;;;2.93;1.97;;;7.10;99.90;;;;;;5073978;28;20407;-48
2022/02/06 05:30:42;;;;;;;2.40;2.20;;;7.10;99.90;;;;;;5081162;28;20205;-46
2022/02/06 05:33:09;;;;;;;1.80;1.70;;;7.10;99.90;;;;;;5064421;28;20220;-51
2022/02/06 05:35:38;;;;;;;2.70;1.80;;;7.10;99.90;;;;;;5082263;28;20186;-45
2022/02/06 05:38:06;;;;;;;2.63;1.60;;;7.10;99.90;;;;;;5073091;28;20253;-47
2022/02/06 05:40:32;;;;;;;2.13;1.93;;;7.20;99.90;;;;;;5075221;28;20198;-52
2022/02/06 05:42:59;;;;;;;1.93;1.80;;;7.20;99.90;;;;;;5079895;28;20240;-44
2022/02/06 05:45:26;;;;;;;3.93;1.80;;;7.20;99.90;;;;;;5081628;28;20225;-47
2022/02/06 05:47:53;;;;;;;1.80;1.63;;;7.20;99.90;;;;;;5064700;28;20713;-44
2022/02/06 05:50:21;;;;;;;1.47;1.30;;;7.20;99.90;;;;;;5083464;28;20209;-51
2022/02/06 05:52:49;;;;;;;3.13;1.20;;;7.20;99.90;;;;;;5080519;28;20182;-48
2022/02/06 05:55:16;;;;;;;1.37;0.97;;;7.20;99.90;;;;;;5075040;28;20202;-42
2022/02/06 05:57:43;;;;;;;1.20;0.70;;;7.20;99.90;;;;;;5071180;28;20226;-44
2022/02/06 06:00:11;;;;;;;1.20;0.67;;;7.30;99.90;;;;;;5079721;28;20202;-40
2022/02/06 06:02:42;;;;;;;1.50;0.73;;;7.30;99.90;;;;;;5066509;28;20211;-45
2022/02/06 06:05:09;;;;;;;4.00;0.80;;;7.30;99.90;;;;;;5068931;28;20227;-46
2022/02/06 06:07:41;;;;;;;2.70;1.20;;;7.30;99.90;;;;;;5075233;28;20238;-46
2022/02/06 06:10:10;;;;;;;6.37;0.60;;;7.30;99.90;;;;;;5077430;28;20234;-49
2022/02/06 06:12:37;;;;;;;1.27;0.73;;;7.30;99.90;;;;;;5080089;28;20213;-52
2022/02/06 06:15:06;;;;;;;1.60;0.93;;;7.30;99.90;;;;;;5071156;28;20210;-45
2022/02/06 06:17:35;;;;;;;1.37;0.53;;;7.30;99.90;;;;;;5066817;28;20230;-45
2022/02/06 06:20:03;;;;;;;4.73;1.00;;;7.30;99.90;;;;;;5058972;28;20206;-45
2022/02/06 06:22:30;;;;;;;6.23;0.93;;;7.40;99.90;;;;;;5070048;28;20213;-44
2022/02/06 06:25:01;;;;;;;1.27;0.60;;;7.40;99.90;;;;;;5071784;28;20218;-51
2022/02/06 06:27:30;;;;;;;1.27;0.70;;;7.40;99.90;;;;;;5077670;28;20206;-48
2022/02/06 06:29:57;;;;;;;1.40;0.77;;;7.40;99.90;;;;;;5077601;28;20212;-47
2022/02/06 06:32:24;;;;;;;3.67;0.93;;;7.40;99.90;;;;;;5077691;28;20217;-44
2022/02/06 06:34:52;;;;;;;1.97;0.97;;;7.40;99.90;;;;;;5068557;28;20194;-43
2022/02/06 06:37:19;;;;;;;2.67;0.80;;;7.40;99.90;;;;;;5080425;28;20621;-46
2022/02/06 06:39:48;;;;;;;4.73;0.60;;;7.40;99.90;;;;;;5068722;28;20195;-46
2022/02/06 06:42:16;;;;;;;3.93;1.23;;;7.40;99.90;;;;;;5080737;28;20217;-45
2022/02/06 06:44:45;;;;;;;2.13;0.50;;;7.40;99.90;;;;;;5079802;28;20220;-45
2022/02/06 06:47:12;;;;;;;1.30;0.50;;;7.40;99.90;;;;;;5073737;28;20298;-46
2022/02/06 06:49:40;;;;;;;3.13;0.90;;;7.40;99.90;;;;;;5074301;28;20202;-45
2022/02/06 06:52:08;;;;;;;2.20;0.87;;;7.40;99.90;;;;;;5065084;28;20217;-48
2022/02/06 06:54:39;;;;;;;1.47;0.87;;;7.40;99.90;;;;;;5072809;28;20198;-43
2022/02/06 06:57:12;;;;;;;1.73;0.60;;;7.40;99.90;;;;;;5068733;28;20226;-45
2022/02/06 07:00:08;;;;;;;2.57;0.70;;;7.30;99.90;;;;;;5078660;28;20189;-45
2022/02/06 07:02:35;;;;;;;2.97;1.13;;;7.30;99.90;;;;;;5067030;28;20202;-44
2022/02/06 07:05:04;;;;;;;3.03;0.90;;;7.30;99.90;;;;;;5082452;28;20218;-44
2022/02/06 07:07:32;;;;;;;2.90;0.70;;;7.20;99.90;;;;;;5064581;28;20222;-43
2022/02/06 07:10:02;;;;;;;3.27;0.87;;;7.20;99.90;;;;;;5076436;28;20206;-43
2022/02/06 07:12:29;;;;;;;1.50;0.50;;;7.20;99.90;;;;;;5071992;28;20194;-49
2022/02/06 07:14:55;;;;;;;1.57;0.50;;;7.20;99.90;;;;;;5078238;28;20213;-44
2022/02/06 07:17:22;;;;;;;2.80;0.80;;;7.20;99.90;;;;;;5067871;28;20215;-49
2022/02/06 07:19:50;;;;;;;0.93;0.57;;;7.10;99.90;;;;;;5076765;28;21069;-46
2022/02/06 07:22:20;;;;;;;1.00;0.60;;;7.00;99.90;;;;;;5059690;28;20205;-48
2022/02/06 07:24:48;;;;;;;0.30;0.30;;;7.00;99.90;;;;;;5072001;28;20213;-46
2022/02/06 07:27:20;;;;;;;2.80;0.43;;;7.00;99.90;;;;;;5073618;28;20637;-50
2022/02/06 07:29:47;;;;;;;2.17;0.53;;;7.00;99.90;;;;;;5074226;28;20292;-46
2022/02/06 07:32:14;;;;;;;2.00;0.50;;;6.90;99.90;;;;;;5071788;28;20198;-50
2022/02/06 07:34:41;;;;;;;0.90;0.33;;;6.90;99.90;;;;;;5070254;28;20306;-46
2022/02/06 07:37:10;;;;;;;0.93;0.43;;;6.90;99.90;;;;;;5076121;28;20225;-44
2022/02/06 07:39:37;;;;;;;1.90;0.40;;;6.90;99.90;;;;;;5067462;28;20216;-46
2022/02/06 07:42:08;;;;;;;0.87;0.47;;;6.80;99.90;;;;;;5068307;28;20205;-46
2022/02/06 07:44:35;;;;;;;0.33;0.30;;;6.80;99.90;;;;;;5092526;28;20237;-46
2022/02/06 07:47:12;;;;;;;0.77;0.23;;;6.80;99.90;;;;;;5074800;28;20249;-44
2022/02/06 07:49:40;;;;;;;0.60;0.40;;;6.80;99.90;;;;;;5069782;28;20213;-50
2022/02/06 07:52:09;;;;;;;0.10;0.10;;;6.80;99.90;;;;;;5078153;28;20194;-47
2022/02/06 07:54:35;;;;;;;1.17;0.30;;;6.80;99.90;;;;;;5066964;28;20209;-45
2022/02/06 07:57:04;;;;;;;1.03;0.50;;;6.80;99.90;;;;;;5067811;28;20202;-44
2022/02/06 07:59:31;;;;;;;1.40;0.20;;;6.70;99.90;;;;;;5077359;28;20194;-45
2022/02/06 08:01:58;;;;;;;0.60;0.33;;;6.70;99.90;;;;;;5078379;28;20186;-46
2022/02/06 08:04:25;;;;;;;1.13;0.40;;;6.70;99.90;;;;;;5076974;28;20217;-46
2022/02/06 08:06:52;;;;;;;1.10;0.90;;;6.70;99.90;;;;;;5077843;28;20218;-50
2022/02/06 08:09:29;;;;;;;0.63;0.20;;;6.70;99.90;;;;;;5068718;28;20225;-45
2022/02/06 08:11:56;;;;;;;0.63;0.20;;;6.80;99.90;;;;;;5071688;28;20250;-49
2022/02/06 08:17:04;;;;;;;1.50;0.30;;;6.80;99.90;;;;;;5075940;28;20214;-48
2022/02/06 08:19:31;;;;;;;2.57;0.40;;;6.80;99.90;;;;;;5074689;28;20194;-46
2022/02/06 08:21:57;;;;;;;0.63;0.30;;;6.80;99.90;;;;;;5077378;28;20190;-46
2022/02/06 08:24:25;;;;;;;0.80;0.20;;;6.70;99.90;;;;;;5065527;28;20609;-48
2022/02/06 08:26:52;;;;;;;0.40;0.30;;;6.80;99.90;;;;;;5077978;28;20629;-47
2022/02/06 08:29:18;;;;;;;0.17;0.17;;;6.80;99.90;;;;;;5066191;28;20206;-49
2022/02/06 08:31:45;;;;;;;0.53;0.50;;;6.80;99.90;;;;;;5077639;28;20209;-43
2022/02/06 08:34:12;;;;;;;1.27;0.20;;;6.80;99.90;;;;;;5074281;28;20206;-50
2022/02/06 08:36:39;;;;;;;1.33;0.63;;;6.80;99.90;;;;;;5075500;28;20216;-47
2022/02/06 08:39:05;;;;;;;1.23;0.57;;;6.80;99.90;;;;;;5061168;28;20229;-45
2022/02/06 08:41:33;;;;;;;0.60;0.20;;;6.80;99.90;;;;;;5077101;28;20198;-45
2022/02/06 08:44:02;;;;;;;0.60;0.10;;;6.80;99.90;;;;;;5064984;28;20194;-46
2022/02/06 08:46:29;;;;;;;0.70;0.30;;;6.80;99.90;;;;;;5071164;28;20222;-47
2022/02/06 08:48:56;;;;;;;2.60;0.33;;;6.80;99.90;;;;;;5076849;28;20194;-46
2022/02/06 08:51:23;;;;;;;1.17;0.20;;;6.80;99.90;;;;;;5069985;28;20229;-45
2022/02/06 08:53:53;;;;;;;2.67;0.40;;;6.80;99.90;;;;;;5067993;28;20206;-46
2022/02/06 08:56:20;;;;;;;1.13;0.27;;;6.90;99.90;;;;;;5066347;28;20212;-48
2022/02/06 08:58:47;;;;;;;0.30;0.20;;;6.90;99.90;;;;;;5068573;28;20262;-48
2022/02/06 09:01:14;;;;;;;0.30;0.20;;;6.90;99.90;;;;;;5067573;28;20202;-46
2022/02/06 09:03:42;;;;;;;1.13;0.40;;;6.90;99.90;;;;;;5070008;28;20224;-47
2022/02/06 09:06:10;;;;;;;0.97;0.20;;;6.90;99.90;;;;;;5062984;28;20255;-47
2022/02/06 09:08:37;;;;;;;2.43;0.40;;;6.90;99.90;;;;;;5068132;28;20249;-46
2022/02/06 09:11:05;;;;;;;2.43;0.30;;;6.90;99.90;;;;;;5062468;28;20737;-50
2022/02/06 09:13:32;;;;;;;2.00;0.30;;;6.90;99.90;;;;;;5083483;28;20204;-45
2022/02/06 09:16:00;;;;;;;0.20;0.20;;;6.90;99.90;;;;;;5068255;28;20207;-48
2022/02/06 09:18:27;;;;;;;1.73;0.30;;;6.90;99.90;;;;;;5075064;28;20206;-51
2022/02/06 09:20:54;;;;;;;0.63;0.50;;;6.90;99.90;;;;;;5079486;28;20738;-45
2022/02/06 09:23:22;;;;;;;2.50;1.00;;;6.90;99.90;;;;;;5064746;28;20244;-43
2022/02/06 09:25:49;;;;;;;0.50;0.20;;;6.90;99.90;;;;;;5080507;28;20302;-42
2022/02/06 09:28:15;;;;;;;0.30;0.20;;;6.80;99.90;;;;;;5065631;28;20236;-41
2022/02/06 09:30:42;;;;;;;1.37;0.40;;;6.90;99.90;;;;;;5073107;28;20707;-42
2022/02/06 09:35:38;;;;;;;0.60;0.10;;;6.80;99.90;;;;;;5081853;28;20190;-43
2022/02/06 09:38:05;;;;;;;0.47;0.30;;;6.70;99.90;;;;;;5071333;28;20320;-42
2022/02/06 09:40:37;;;;;;;0.30;0.10;;;6.70;99.90;;;;;;5079365;28;20917;-41
2022/02/06 09:43:06;;;;;;;0.37;0.37;;;6.70;99.90;;;;;;5066216;28;20557;-41
2022/02/06 09:45:38;;;;;;;0.13;0.10;;;6.70;99.90;;;;;;5072127;28;20232;-44
2022/02/06 09:48:05;;;;;;;0.33;0.10;;;6.70;99.90;;;;;;5079121;28;20222;-43
2022/02/06 09:50:33;;;;;;;0.60;0.20;;;6.70;99.90;;;;;;5067192;28;20268;-42
2022/02/06 09:53:00;;;;;;;1.20;0.20;;;6.70;99.90;;;;;;5068673;28;20650;-41
2022/02/06 09:55:27;;;;;;;1.30;0.10;;;6.60;99.90;;;;;;5067075;28;20213;-40
2022/02/06 09:58:01;;;;;;;1.73;0.30;;;6.70;99.90;;;;;;5061646;28;20735;-44
2022/02/06 10:00:30;;;;;;;1.50;0.30;;;6.70;99.90;;;;;;5071318;28;20197;-42
2022/02/06 10:03:02;;;;;;;0.57;0.20;;;6.70;99.90;;;;;;5081681;28;20205;-42
2022/02/06 10:05:35;;;;;;;0.73;0.20;;;6.70;99.90;;;;;;5071081;28;20209;-45
2022/02/06 10:08:11;;;;;;;0.13;0.10;;;6.60;99.90;;;;;;5073654;28;20214;-41
2022/02/06 10:10:42;;;;;;;0.23;0.23;;;6.60;99.90;;;;;;5077821;28;20618;-42
2022/02/06 10:13:09;;;;;;;0.57;0.20;;;6.60;99.90;;;;;;5068554;28;20634;-44
2022/02/06 10:15:37;;;;;;;0.20;0.20;;;6.60;99.90;;;;;;5083339;28;20569;-42
2022/02/06 10:18:04;;;;;;;0.67;0.20;;;6.60;99.90;;;;;;5074448;28;20237;-39
2022/02/06 10:20:43;;;;;;;0.80;0.20;;;6.60;99.90;;;;;;5084300;28;20201;-42
2022/02/06 10:23:20;;;;;;;0.57;0.20;;;6.60;99.90;;;;;;5074960;28;20190;-41
2022/02/06 10:25:49;;;;;;;0.70;0.20;;;6.60;99.90;;;;;;5070620;28;20209;-44
2022/02/06 10:28:34;;;;;;;0.20;0.20;;;6.50;99.90;;;;;;5067704;28;21911;-43
2022/02/06 10:31:04;;;;;;;0.70;0.33;;;6.50;99.90;;;;;;5078998;28;20286;-44
2022/02/06 10:33:44;;;;;;;0.10;0.10;;;6.60;99.90;;;;;;5081827;28;20205;-43
2022/02/06 10:36:15;;;;;;;0.43;0.27;;;6.50;99.90;;;;;;5079605;28;20186;-44
2022/02/06 10:38:42;;;;;;;0.30;0.20;;;6.40;99.90;;;;;;5069391;28;20687;-50
2022/02/06 10:41:11;;;;;;;1.50;0.20;;;6.50;99.90;;;;;;5069912;28;20197;-52
2022/02/06 10:43:40;;;;;;;0.57;0.37;;;6.50;99.90;;;;;;5058923;28;20202;-47
2022/02/06 10:46:09;;;;;;;2.30;0.60;;;6.50;99.90;;;;;;5078903;28;20862;-41
2022/02/06 10:48:45;;;;;;;1.70;0.50;;;6.50;99.90;;;;;;5077398;28;20638;-49
2022/02/06 10:51:35;;;;;;;0.70;0.47;;;6.60;99.90;;;;;;5075000;28;20198;-42
2022/02/06 10:54:03;;;;;;;1.13;0.13;;;6.50;99.90;;;;;;5077756;28;20186;-45
2022/02/06 10:56:30;;;;;;;0.33;0.20;;;6.30;99.90;;;;;;5077019;28;20198;-43
2022/02/06 10:58:59;;;;;;;0.50;0.20;;;6.30;99.90;;;;;;5058388;28;20213;-45
2022/02/06 11:01:30;;;;;;;1.20;0.20;;;6.30;99.90;;;;;;5079365;28;20233;-47
2022/02/06 11:04:07;;;;;;;3.80;1.17;;;6.30;99.90;;;;;;5074346;28;20906;-43
2022/02/06 11:06:44;;;;;;;1.13;0.23;;;6.20;99.90;;;;;;5071732;28;20211;-43
2022/02/06 11:09:25;;;;;;;1.93;0.20;;;6.20;99.90;;;;;;5068118;28;20879;-42
2022/02/06 11:11:52;;;;;;;1.27;0.20;;;6.20;99.90;;;;;;5065152;28;20189;-44
2022/02/06 11:14:23;;;;;;;0.33;0.20;;;6.20;99.90;;;;;;5076651;28;20198;-43
2022/02/06 11:16:50;;;;;;;0.40;0.20;;;6.20;99.90;;;;;;5060359;28;20291;-42
2022/02/06 11:19:18;;;;;;;0.27;0.27;;;6.10;99.90;;;;;;5078354;28;20201;-44
2022/02/06 11:21:47;;;;;;;0.30;0.30;;;6.20;99.90;;;;;;5080864;28;20663;-47
2022/02/06 11:24:21;;;;;;;1.63;0.37;;;6.10;99.90;;;;;;5076983;28;20190;-42
2022/02/06 11:26:49;;;;;;;0.40;0.20;;;6.10;99.90;;;;;;5068586;28;20213;-45
2022/02/06 11:29:15;;;;;;;0.20;0.17;;;6.10;99.90;;;;;;5078014;28;20205;-46
2022/02/06 11:31:43;;;;;;;1.90;0.20;;;6.10;99.90;;;;;;5060496;28;20647;-44
2022/02/06 11:34:15;;;;;;;0.73;0.37;;;6.10;99.90;;;;;;5076468;28;20194;-49
2022/02/06 11:45:29;;;;;;;2.27;0.30;;;6.10;99.90;;;;;;5074220;28;20732;-47
2022/02/06 11:48:02;;;;;;;0.47;0.30;;;6.10;99.90;;;;;;5062448;28;20225;-48
2022/02/06 11:50:30;;;;;;;0.80;0.30;;;6.10;99.90;;;;;;5075150;28;20206;-45
2022/02/06 11:52:59;;;;;;;2.10;0.40;;;6.10;99.90;;;;;;5077179;28;20201;-45
2022/02/06 11:55:38;;;;;;;0.53;0.17;;;6.10;99.90;;;;;;5073861;28;20200;-45
2022/02/06 11:58:28;;;;;;;0.57;0.40;;;6.10;99.90;;;;;;5067807;28;20976;-45
2022/02/06 12:01:24;;;;;;;0.63;0.23;;;6.00;99.90;;;;;;5057546;28;20201;-50
2022/02/06 12:03:53;;;;;;;0.30;0.30;;;5.90;99.90;;;;;;5061183;28;20594;-47
2022/02/06 12:06:21;;;;;;;0.77;0.40;;;5.90;99.90;;;;;;5082247;28;20202;-43
2022/02/06 12:09:12;;;;;;;1.30;0.37;;;5.90;99.90;;;;;;5075853;28;20599;-48
2022/02/06 12:11:41;;;;;;;1.00;0.40;;;5.90;99.90;;;;;;5077641;28;20218;-46
2022/02/06 12:14:10;;;;;;;2.10;0.40;;;5.90;99.90;;;;;;5060841;28;20276;-44
2022/02/06 12:16:41;;;;;;;0.30;0.30;;;5.90;99.90;;;;;;5075565;28;20209;-47
2022/02/06 12:19:27;;;;;;;1.70;0.30;;;5.90;99.90;;;;;;5063752;28;20201;-44
2022/02/06 12:21:53;;;;;;;0.37;0.37;;;5.80;99.90;;;;;;5077424;28;20205;-49
2022/02/06 12:24:36;;;;;;;4.90;0.57;;;5.80;99.90;;;;;;5082885;28;20198;-43
2022/02/06 12:27:23;;;;;;;0.57;0.30;;;5.80;99.90;;;;;;5074302;28;20502;-43
2022/02/06 12:29:56;;;;;;;0.50;0.30;;;5.60;99.90;;;;;;5073560;28;20655;-46
2022/02/06 12:32:31;;;;;;;0.83;0.27;;;5.50;99.90;;;;;;5068912;28;20194;-45
2022/02/06 12:37:43;;;;;;;0.10;0.10;;;5.40;99.90;;;;;;5071055;28;20236;-46
2022/02/06 12:40:12;;;;;;;0.30;0.30;;;5.30;99.90;;;;;;5071205;28;20183;-46
2022/02/06 12:42:43;;;;;;;0.30;0.10;;;5.30;99.90;;;;;;5083948;28;20667;-46
2022/02/06 12:45:12;;;;;;;0.50;0.20;;;5.20;99.90;;;;;;5071364;28;20298;-47
2022/02/06 12:47:46;;;;;;;0.10;0.10;;;5.10;99.90;;;;;;5074438;28;20285;-44
2022/02/06 12:50:16;;;;;;;0.40;0.27;;;5.10;99.90;;;;;;5067195;28;20209;-43
2022/02/06 12:52:43;;;;;;;0.50;0.30;;;5.10;99.90;;;;;;5081755;28;20213;-47
2022/02/06 12:55:11;;;;;;;0.10;0.10;;;5.10;99.90;;;;;;5075804;28;20190;-44
2022/02/06 12:57:48;;;;;;;0.30;0.30;;;5.10;99.90;;;;;;5083778;28;20607;-46
2022/02/06 13:00:25;;;;;;;0.30;0.20;;;5.10;99.90;;;;;;5074083;28;20210;-45
2022/02/06 13:02:52;;;;;;;0.30;0.20;;;5.10;99.90;;;;;;5072949;28;20201;-50
2022/02/06 13:05:20;;;;;;;0.60;0.10;;;5.10;99.90;;;;;;5082937;28;20209;-45
2022/02/06 13:07:47;;;;;;;2.43;0.20;;;5.00;99.90;;;;;;5065941;28;20812;-49
2022/02/06 13:10:15;;;;;;;0.67;0.20;;;5.00;99.90;;;;;;5080677;28;20186;-45
2022/02/06 13:12:49;;;;;;;1.90;0.20;;;4.90;99.90;;;;;;5074874;28;20205;-49
2022/02/06 13:18:20;;;;;;;0.30;0.20;;;4.90;99.90;;;;;;5075100;28;20202;-47
2022/02/06 13:21:01;;;;;;;0.10;0.10;;;4.90;99.90;;;;;;5066987;28;20662;-47
2022/02/06 13:23:43;;;;;;;0.20;0.20;;;4.80;99.90;;;;;;5076859;28;20544;-44
2022/02/06 13:26:22;;;;;;;0.27;0.17;;;4.80;99.90;;;;;;5073504;28;20192;-48
2022/02/06 13:28:58;;;;;;;0.10;0.10;;;4.80;99.90;;;;;;5078385;28;20218;-45
2022/02/06 13:31:43;;;;;;;0.20;0.10;;;4.70;99.90;;;;;;5077394;28;20213;-47
2022/02/06 13:34:41;;;;;;;0.10;0.10;;;4.70;99.90;;;;;;5072546;28;21447;-46
2022/02/06 13:37:13;;;;;;;0.10;0.10;;;4.70;99.90;;;;;;5064008;28;20226;-43
2022/02/06 13:39:49;;;;;;;0.20;0.10;;;4.70;99.90;;;;;;5080559;28;20190;-48
2022/02/06 13:42:19;;;;;;;0.57;0.10;;;4.70;99.90;;;;;;5081090;28;20205;-45
2022/02/06 13:45:02;;;;;;;0.10;0.10;;;4.70;99.90;;;;;;5075435;28;20255;-48
2022/02/06 13:47:30;;;;;;;0.10;0.10;;;4.70;99.90;;;;;;5084648;28;20248;-46
2022/02/06 13:50:01;;;;;;;0.20;0.20;;;4.60;99.90;;;;;;5074869;28;21033;-45
2022/02/06 13:52:28;;;;;;;0.20;0.20;;;4.60;99.90;;;;;;5077548;28;20199;-43
2022/02/06 13:54:55;;;;;;;0.27;0.23;;;4.60;99.90;;;;;;5066228;28;20658;-47
2022/02/06 13:57:25;;;;;;;0.10;0.10;;;4.60;99.90;;;;;;5079799;28;20222;-43
2022/02/06 13:59:53;;;;;;;0.20;0.10;;;4.50;99.90;;;;;;5069780;28;20202;-46
2022/02/06 14:02:20;;;;;;;1.70;0.23;;;4.50;99.90;;;;;;5062067;28;20296;-44
2022/02/06 14:04:51;;;;;;;0.53;0.30;;;4.60;99.90;;;;;;5076886;28;20260;-48
2022/02/06 14:07:21;;;;;;;0.20;0.20;;;4.50;99.90;;;;;;5074424;28;20232;-44
2022/02/06 14:10:03;;;;;;;0.97;0.37;;;4.50;99.90;;;;;;5062977;28;20243;-47
2022/02/06 14:12:46;;;;;;;0.87;0.20;;;4.50;99.90;;;;;;5079751;28;20214;-45
2022/02/06 14:15:21;;;;;;;0.40;0.23;;;4.50;99.90;;;;;;5079985;28;20202;-44
2022/02/06 14:17:50;;;;;;;0.63;0.30;;;4.50;99.90;;;;;;5072020;28;20635;-46
2022/02/06 14:20:23;;;;;;;0.33;0.33;;;4.50;99.90;;;;;;5082372;28;20201;-44
2022/02/06 14:22:53;;;;;;;1.23;0.50;;;4.60;99.90;;;;;;5075271;28;20198;-43
2022/02/06 14:25:27;;;;;;;0.30;0.30;;;4.60;99.90;;;;;;5065956;28;20214;-45
2022/02/06 14:27:55;;;;;;;0.60;0.40;;;4.60;99.90;;;;;;5077300;28;20213;-46
2022/02/06 14:30:24;;;;;;;0.40;0.30;;;4.60;99.90;;;;;;5081320;28;20202;-46
2022/02/06 14:33:03;;;;;;;1.67;0.50;;;4.70;99.90;;;;;;5071864;28;20202;-46
2022/02/06 14:35:47;;;;;;;0.40;0.30;;;4.70;99.90;;;;;;5078278;28;20198;-46
2022/02/06 14:38:22;;;;;;;0.63;0.63;;;4.70;99.90;;;;;;5066311;28;20220;-49